sensor_id;sensor_type;location;lat;lon;timestamp;P1;durP1;ratioP1;P2;durP2;ratioP2
63882;SDS011;50047;50.596;30.466;2022-08-03T00:02:17;6.30;;;3.60;;
63882;SDS011;50047;50.596;30.466;2022-08-03T00:04:45;5.10;;;2.20;;
63882;SDS011;50047;50.596;30.466;2022-08-03T00:07:13;5.20;;;2.70;;
63882;SDS011;50047;50.596;30.466;2022-08-03T00:09:41;5.20;;;3.20;;
63882;SDS011;50047;50.596;30.466;2022-08-03T00:12:08;4.60;;;2.90;;
63882;SDS011;50047;50.596;30.466;2022-08-03T00:14:36;6.20;;;3.10;;
63882;SDS011;50047;50.596;30.466;2022-08-03T00:17:03;7.20;;;2.60;;
63882;SDS011;50047;50.596;30.466;2022-08-03T00:19:30;7.40;;;2.90;;
63882;SDS011;50047;50.596;30.466;2022-08-03T00:21:57;8.10;;;4.10;;
63882;SDS011;50047;50.596;30.466;2022-08-03T00:24:24;6.90;;;3.10;;
63882;SDS011;50047;50.596;30.466;2022-08-03T00:26:52;4.60;;;3.80;;
63882;SDS011;50047;50.596;30.466;2022-08-03T00:29:19;5.20;;;2.80;;
63882;SDS011;50047;50.596;30.466;2022-08-03T00:31:47;8.80;;;2.80;;
63882;SDS011;50047;50.596;30.466;2022-08-03T00:34:24;6.40;;;3.00;;
63882;SDS011;50047;50.596;30.466;2022-08-03T00:37:12;5.80;;;3.30;;
63882;SDS011;50047;50.596;30.466;2022-08-03T00:39:39;5.70;;;3.00;;
63882;SDS011;50047;50.596;30.466;2022-08-03T00:42:06;5.80;;;3.00;;
63882;SDS011;50047;50.596;30.466;2022-08-03T00:44:43;4.90;;;2.40;;
63882;SDS011;50047;50.596;30.466;2022-08-03T00:47:11;3.90;;;2.90;;
63882;SDS011;50047;50.596;30.466;2022-08-03T00:49:39;5.60;;;3.10;;
63882;SDS011;50047;50.596;30.466;2022-08-03T00:52:08;5.30;;;3.10;;
63882;SDS011;50047;50.596;30.466;2022-08-03T00:54:36;5.20;;;2.90;;
63882;SDS011;50047;50.596;30.466;2022-08-03T00:57:04;5.10;;;2.70;;
63882;SDS011;50047;50.596;30.466;2022-08-03T00:59:32;7.70;;;3.00;;
63882;SDS011;50047;50.596;30.466;2022-08-03T01:02:00;5.10;;;3.00;;
63882;SDS011;50047;50.596;30.466;2022-08-03T01:04:28;5.30;;;3.00;;
63882;SDS011;50047;50.596;30.466;2022-08-03T01:07:13;8.80;;;3.40;;
63882;SDS011;50047;50.596;30.466;2022-08-03T01:09:53;5.10;;;2.60;;
63882;SDS011;50047;50.596;30.466;2022-08-03T01:12:31;5.20;;;2.30;;
63882;SDS011;50047;50.596;30.466;2022-08-03T01:18:02;5.00;;;3.30;;
63882;SDS011;50047;50.596;30.466;2022-08-03T01:20:37;7.30;;;3.00;;
63882;SDS011;50047;50.596;30.466;2022-08-03T01:32:17;8.30;;;3.30;;
63882;SDS011;50047;50.596;30.466;2022-08-03T01:35:09;6.60;;;3.20;;
63882;SDS011;50047;50.596;30.466;2022-08-03T01:37:50;4.10;;;2.50;;
63882;SDS011;50047;50.596;30.466;2022-08-03T01:40:23;5.70;;;3.00;;
63882;SDS011;50047;50.596;30.466;2022-08-03T01:42:53;4.50;;;2.90;;
63882;SDS011;50047;50.596;30.466;2022-08-03T01:45:23;5.70;;;2.90;;
63882;SDS011;50047;50.596;30.466;2022-08-03T01:47:51;3.50;;;3.10;;
63882;SDS011;50047;50.596;30.466;2022-08-03T01:50:26;6.60;;;2.30;;
63882;SDS011;50047;50.596;30.466;2022-08-03T01:52:55;5.80;;;2.90;;
63882;SDS011;50047;50.596;30.466;2022-08-03T01:55:24;3.70;;;2.90;;
63882;SDS011;50047;50.596;30.466;2022-08-03T01:57:55;4.70;;;3.30;;
63882;SDS011;50047;50.596;30.466;2022-08-03T02:00:32;7.00;;;3.70;;
63882;SDS011;50047;50.596;30.466;2022-08-03T02:03:04;6.30;;;2.30;;
63882;SDS011;50047;50.596;30.466;2022-08-03T02:05:32;6.30;;;3.10;;
63882;SDS011;50047;50.596;30.466;2022-08-03T02:08:01;6.70;;;2.70;;
63882;SDS011;50047;50.596;30.466;2022-08-03T02:10:30;5.30;;;3.20;;
63882;SDS011;50047;50.596;30.466;2022-08-03T02:13:02;7.90;;;3.30;;
63882;SDS011;50047;50.596;30.466;2022-08-03T02:15:32;3.70;;;2.30;;
63882;SDS011;50047;50.596;30.466;2022-08-03T02:18:02;4.60;;;3.00;;
63882;SDS011;50047;50.596;30.466;2022-08-03T02:20:32;5.50;;;3.20;;
63882;SDS011;50047;50.596;30.466;2022-08-03T02:23:02;4.10;;;3.60;;
63882;SDS011;50047;50.596;30.466;2022-08-03T02:25:29;4.70;;;3.20;;
63882;SDS011;50047;50.596;30.466;2022-08-03T02:28:09;7.10;;;2.30;;
63882;SDS011;50047;50.596;30.466;2022-08-03T02:30:41;7.20;;;2.90;;
63882;SDS011;50047;50.596;30.466;2022-08-03T02:33:18;6.20;;;2.90;;
63882;SDS011;50047;50.596;30.466;2022-08-03T02:35:50;3.60;;;3.10;;
63882;SDS011;50047;50.596;30.466;2022-08-03T02:38:20;5.40;;;3.80;;
63882;SDS011;50047;50.596;30.466;2022-08-03T02:40:51;4.20;;;2.10;;
63882;SDS011;50047;50.596;30.466;2022-08-03T02:45:51;6.00;;;3.00;;
63882;SDS011;50047;50.596;30.466;2022-08-03T02:48:21;6.70;;;3.20;;
63882;SDS011;50047;50.596;30.466;2022-08-03T02:50:52;5.40;;;3.30;;
63882;SDS011;50047;50.596;30.466;2022-08-03T02:53:25;5.40;;;3.70;;
63882;SDS011;50047;50.596;30.466;2022-08-03T02:55:55;3.80;;;2.10;;
63882;SDS011;50047;50.596;30.466;2022-08-03T02:58:23;5.80;;;2.90;;
63882;SDS011;50047;50.596;30.466;2022-08-03T03:00:52;4.20;;;3.10;;
63882;SDS011;50047;50.596;30.466;2022-08-03T03:03:20;5.60;;;3.00;;
63882;SDS011;50047;50.596;30.466;2022-08-03T03:05:51;5.80;;;3.50;;
63882;SDS011;50047;50.596;30.466;2022-08-03T03:08:23;4.50;;;3.00;;
63882;SDS011;50047;50.596;30.466;2022-08-03T03:10:58;5.30;;;2.30;;
63882;SDS011;50047;50.596;30.466;2022-08-03T03:13:27;3.20;;;2.80;;
63882;SDS011;50047;50.596;30.466;2022-08-03T03:15:58;3.90;;;2.70;;
63882;SDS011;50047;50.596;30.466;2022-08-03T03:18:27;4.90;;;2.90;;
63882;SDS011;50047;50.596;30.466;2022-08-03T03:20:56;3.90;;;3.00;;
63882;SDS011;50047;50.596;30.466;2022-08-03T03:23:26;4.90;;;3.10;;
63882;SDS011;50047;50.596;30.466;2022-08-03T03:25:55;2.70;;;2.10;;
63882;SDS011;50047;50.596;30.466;2022-08-03T03:28:24;4.30;;;2.50;;
63882;SDS011;50047;50.596;30.466;2022-08-03T03:30:52;3.50;;;2.40;;
63882;SDS011;50047;50.596;30.466;2022-08-03T03:33:20;5.10;;;3.00;;
63882;SDS011;50047;50.596;30.466;2022-08-03T03:35:48;3.30;;;3.00;;
63882;SDS011;50047;50.596;30.466;2022-08-03T03:38:17;6.10;;;3.00;;
63882;SDS011;50047;50.596;30.466;2022-08-03T03:40:45;4.80;;;2.30;;
63882;SDS011;50047;50.596;30.466;2022-08-03T03:43:13;3.50;;;2.60;;
63882;SDS011;50047;50.596;30.466;2022-08-03T03:45:41;4.90;;;2.90;;
63882;SDS011;50047;50.596;30.466;2022-08-03T03:48:08;5.70;;;2.60;;
63882;SDS011;50047;50.596;30.466;2022-08-03T03:50:36;10.10;;;3.20;;
63882;SDS011;50047;50.596;30.466;2022-08-03T03:53:10;6.30;;;2.80;;
63882;SDS011;50047;50.596;30.466;2022-08-03T03:55:38;4.80;;;2.30;;
63882;SDS011;50047;50.596;30.466;2022-08-03T03:58:26;6.50;;;2.70;;
63882;SDS011;50047;50.596;30.466;2022-08-03T04:00:54;6.40;;;2.70;;
63882;SDS011;50047;50.596;30.466;2022-08-03T04:03:21;4.20;;;2.90;;
63882;SDS011;50047;50.596;30.466;2022-08-03T04:05:49;5.70;;;3.00;;
63882;SDS011;50047;50.596;30.466;2022-08-03T04:08:34;6.30;;;2.40;;
63882;SDS011;50047;50.596;30.466;2022-08-03T04:14:16;4.60;;;2.90;;
63882;SDS011;50047;50.596;30.466;2022-08-03T04:16:56;6.20;;;3.10;;
63882;SDS011;50047;50.596;30.466;2022-08-03T04:19:35;5.80;;;3.00;;
63882;SDS011;50047;50.596;30.466;2022-08-03T04:22:08;6.90;;;2.40;;
63882;SDS011;50047;50.596;30.466;2022-08-03T04:24:38;5.00;;;2.90;;
63882;SDS011;50047;50.596;30.466;2022-08-03T04:27:10;9.30;;;2.90;;
63882;SDS011;50047;50.596;30.466;2022-08-03T04:29:40;8.00;;;3.20;;
63882;SDS011;50047;50.596;30.466;2022-08-03T04:32:14;8.00;;;2.90;;
63882;SDS011;50047;50.596;30.466;2022-08-03T04:34:43;6.70;;;3.20;;
63882;SDS011;50047;50.596;30.466;2022-08-03T04:37:11;2.70;;;2.20;;
63882;SDS011;50047;50.596;30.466;2022-08-03T04:39:43;5.70;;;2.70;;
63882;SDS011;50047;50.596;30.466;2022-08-03T04:42:15;5.10;;;2.60;;
63882;SDS011;50047;50.596;30.466;2022-08-03T04:44:45;5.00;;;2.80;;
63882;SDS011;50047;50.596;30.466;2022-08-03T04:47:15;5.90;;;3.20;;
63882;SDS011;50047;50.596;30.466;2022-08-03T04:49:42;4.50;;;3.00;;
63882;SDS011;50047;50.596;30.466;2022-08-03T04:52:10;4.60;;;2.90;;
63882;SDS011;50047;50.596;30.466;2022-08-03T04:54:38;6.00;;;2.60;;
63882;SDS011;50047;50.596;30.466;2022-08-03T04:57:15;3.50;;;2.40;;
63882;SDS011;50047;50.596;30.466;2022-08-03T04:59:49;4.80;;;2.90;;
63882;SDS011;50047;50.596;30.466;2022-08-03T05:02:28;7.10;;;2.60;;
63882;SDS011;50047;50.596;30.466;2022-08-03T05:04:57;6.20;;;2.70;;
63882;SDS011;50047;50.596;30.466;2022-08-03T05:07:25;5.10;;;3.00;;
63882;SDS011;50047;50.596;30.466;2022-08-03T05:10:03;6.20;;;3.10;;
63882;SDS011;50047;50.596;30.466;2022-08-03T05:12:42;6.30;;;2.90;;
63882;SDS011;50047;50.596;30.466;2022-08-03T05:15:10;7.70;;;3.00;;
63882;SDS011;50047;50.596;30.466;2022-08-03T05:17:38;5.10;;;3.20;;
63882;SDS011;50047;50.596;30.466;2022-08-03T05:20:06;4.90;;;2.90;;
63882;SDS011;50047;50.596;30.466;2022-08-03T05:22:34;5.00;;;3.20;;
63882;SDS011;50047;50.596;30.466;2022-08-03T05:25:02;8.70;;;2.90;;
63882;SDS011;50047;50.596;30.466;2022-08-03T05:27:29;3.80;;;3.20;;
63882;SDS011;50047;50.596;30.466;2022-08-03T05:29:57;5.10;;;2.90;;
63882;SDS011;50047;50.596;30.466;2022-08-03T05:32:44;6.90;;;3.40;;
63882;SDS011;50047;50.596;30.466;2022-08-03T05:35:12;8.00;;;3.40;;
63882;SDS011;50047;50.596;30.466;2022-08-03T05:38:00;5.40;;;3.20;;
63882;SDS011;50047;50.596;30.466;2022-08-03T05:40:29;4.20;;;3.10;;
63882;SDS011;50047;50.596;30.466;2022-08-03T05:42:56;5.00;;;3.20;;
63882;SDS011;50047;50.596;30.466;2022-08-03T05:45:24;4.10;;;3.00;;
63882;SDS011;50047;50.596;30.466;2022-08-03T05:47:54;5.10;;;3.00;;
63882;SDS011;50047;50.596;30.466;2022-08-03T05:50:21;5.10;;;3.40;;
63882;SDS011;50047;50.596;30.466;2022-08-03T05:52:49;6.20;;;3.70;;
63882;SDS011;50047;50.596;30.466;2022-08-03T05:55:17;4.90;;;3.40;;
63882;SDS011;50047;50.596;30.466;2022-08-03T05:57:45;6.70;;;2.70;;
63882;SDS011;50047;50.596;30.466;2022-08-03T06:00:15;5.70;;;2.90;;
63882;SDS011;50047;50.596;30.466;2022-08-03T06:02:42;5.20;;;2.80;;
63882;SDS011;50047;50.596;30.466;2022-08-03T06:05:10;5.70;;;3.30;;
63882;SDS011;50047;50.596;30.466;2022-08-03T06:07:37;4.00;;;3.10;;
63882;SDS011;50047;50.596;30.466;2022-08-03T06:10:05;5.10;;;3.40;;
63882;SDS011;50047;50.596;30.466;2022-08-03T06:12:52;6.30;;;3.20;;
63882;SDS011;50047;50.596;30.466;2022-08-03T06:15:20;6.20;;;3.50;;
63882;SDS011;50047;50.596;30.466;2022-08-03T06:17:48;5.10;;;3.30;;
63882;SDS011;50047;50.596;30.466;2022-08-03T06:20:17;4.90;;;3.80;;
63882;SDS011;50047;50.596;30.466;2022-08-03T06:22:47;5.60;;;3.60;;
63882;SDS011;50047;50.596;30.466;2022-08-03T06:25:26;9.00;;;3.70;;
63882;SDS011;50047;50.596;30.466;2022-08-03T06:27:53;5.20;;;3.10;;
63882;SDS011;50047;50.596;30.466;2022-08-03T06:30:20;7.80;;;3.50;;
63882;SDS011;50047;50.596;30.466;2022-08-03T06:32:47;6.90;;;3.50;;
63882;SDS011;50047;50.596;30.466;2022-08-03T06:35:18;6.10;;;3.50;;
63882;SDS011;50047;50.596;30.466;2022-08-03T06:37:46;6.70;;;3.50;;
63882;SDS011;50047;50.596;30.466;2022-08-03T06:40:19;5.10;;;3.50;;
63882;SDS011;50047;50.596;30.466;2022-08-03T06:43:00;4.80;;;3.20;;
63882;SDS011;50047;50.596;30.466;2022-08-03T06:45:29;8.20;;;3.80;;
63882;SDS011;50047;50.596;30.466;2022-08-03T06:48:02;7.20;;;3.30;;
63882;SDS011;50047;50.596;30.466;2022-08-03T06:50:30;6.10;;;3.60;;
63882;SDS011;50047;50.596;30.466;2022-08-03T06:52:58;7.40;;;3.40;;
63882;SDS011;50047;50.596;30.466;2022-08-03T06:55:28;8.10;;;3.60;;
63882;SDS011;50047;50.596;30.466;2022-08-03T06:57:55;4.60;;;3.60;;
63882;SDS011;50047;50.596;30.466;2022-08-03T07:00:28;9.10;;;3.50;;
63882;SDS011;50047;50.596;30.466;2022-08-03T07:02:56;7.70;;;3.50;;
63882;SDS011;50047;50.596;30.466;2022-08-03T07:05:24;8.80;;;3.80;;
63882;SDS011;50047;50.596;30.466;2022-08-03T07:07:55;5.60;;;3.80;;
63882;SDS011;50047;50.596;30.466;2022-08-03T07:10:27;4.60;;;4.00;;
63882;SDS011;50047;50.596;30.466;2022-08-03T07:12:55;8.10;;;3.70;;
63882;SDS011;50047;50.596;30.466;2022-08-03T07:15:23;4.20;;;3.70;;
63882;SDS011;50047;50.596;30.466;2022-08-03T07:18:10;6.10;;;3.70;;
63882;SDS011;50047;50.596;30.466;2022-08-03T07:20:37;7.70;;;4.00;;
63882;SDS011;50047;50.596;30.466;2022-08-03T07:23:05;5.20;;;3.60;;
63882;SDS011;50047;50.596;30.466;2022-08-03T07:25:32;7.40;;;4.00;;
63882;SDS011;50047;50.596;30.466;2022-08-03T07:27:59;4.70;;;3.60;;
63882;SDS011;50047;50.596;30.466;2022-08-03T07:30:26;7.90;;;3.80;;
63882;SDS011;50047;50.596;30.466;2022-08-03T07:32:54;6.20;;;4.00;;
63882;SDS011;50047;50.596;30.466;2022-08-03T07:35:21;5.20;;;4.00;;
63882;SDS011;50047;50.596;30.466;2022-08-03T07:37:51;5.20;;;3.10;;
63882;SDS011;50047;50.596;30.466;2022-08-03T07:40:20;6.60;;;3.70;;
63882;SDS011;50047;50.596;30.466;2022-08-03T07:42:48;5.50;;;3.60;;
63882;SDS011;50047;50.596;30.466;2022-08-03T07:45:19;4.90;;;4.00;;
63882;SDS011;50047;50.596;30.466;2022-08-03T07:47:49;5.50;;;3.60;;
63882;SDS011;50047;50.596;30.466;2022-08-03T07:50:19;6.80;;;3.90;;
63882;SDS011;50047;50.596;30.466;2022-08-03T07:52:47;6.00;;;4.00;;
63882;SDS011;50047;50.596;30.466;2022-08-03T07:55:20;9.70;;;4.30;;
63882;SDS011;50047;50.596;30.466;2022-08-03T08:00:26;6.30;;;3.30;;
63882;SDS011;50047;50.596;30.466;2022-08-03T08:02:53;8.00;;;3.50;;
63882;SDS011;50047;50.596;30.466;2022-08-03T08:05:20;8.40;;;3.40;;
63882;SDS011;50047;50.596;30.466;2022-08-03T08:07:47;5.10;;;3.30;;
63882;SDS011;50047;50.596;30.466;2022-08-03T08:10:17;7.00;;;3.60;;
63882;SDS011;50047;50.596;30.466;2022-08-03T08:12:45;6.70;;;3.90;;
63882;SDS011;50047;50.596;30.466;2022-08-03T08:15:12;7.40;;;4.00;;
63882;SDS011;50047;50.596;30.466;2022-08-03T08:17:41;5.00;;;4.20;;
63882;SDS011;50047;50.596;30.466;2022-08-03T08:20:19;7.10;;;4.10;;
63882;SDS011;50047;50.596;30.466;2022-08-03T08:23:01;6.80;;;3.30;;
63882;SDS011;50047;50.596;30.466;2022-08-03T08:25:50;5.10;;;3.70;;
63882;SDS011;50047;50.596;30.466;2022-08-03T08:28:19;6.80;;;4.10;;
63882;SDS011;50047;50.596;30.466;2022-08-03T08:30:59;7.80;;;3.80;;
63882;SDS011;50047;50.596;30.466;2022-08-03T08:33:27;6.90;;;4.00;;
63882;SDS011;50047;50.596;30.466;2022-08-03T08:36:13;6.30;;;3.70;;
63882;SDS011;50047;50.596;30.466;2022-08-03T08:38:41;4.70;;;4.00;;
63882;SDS011;50047;50.596;30.466;2022-08-03T08:41:11;7.40;;;4.00;;
63882;SDS011;50047;50.596;30.466;2022-08-03T08:43:40;8.80;;;4.10;;
63882;SDS011;50047;50.596;30.466;2022-08-03T08:46:11;5.70;;;4.10;;
63882;SDS011;50047;50.596;30.466;2022-08-03T08:48:49;6.30;;;3.50;;
63882;SDS011;50047;50.596;30.466;2022-08-03T08:51:19;4.60;;;3.90;;
63882;SDS011;50047;50.596;30.466;2022-08-03T08:53:48;7.60;;;3.60;;
63882;SDS011;50047;50.596;30.466;2022-08-03T08:56:18;4.80;;;3.60;;
63882;SDS011;50047;50.596;30.466;2022-08-03T08:58:53;4.60;;;3.70;;
63882;SDS011;50047;50.596;30.466;2022-08-03T09:01:26;6.30;;;4.10;;
63882;SDS011;50047;50.596;30.466;2022-08-03T09:03:54;5.90;;;3.70;;
63882;SDS011;50047;50.596;30.466;2022-08-03T09:06:21;7.00;;;3.90;;
63882;SDS011;50047;50.596;30.466;2022-08-03T09:08:50;4.20;;;3.70;;
63882;SDS011;50047;50.596;30.466;2022-08-03T09:11:21;6.80;;;2.90;;
63882;SDS011;50047;50.596;30.466;2022-08-03T09:14:09;3.80;;;3.20;;
63882;SDS011;50047;50.596;30.466;2022-08-03T09:16:57;7.90;;;3.60;;
63882;SDS011;50047;50.596;30.466;2022-08-03T09:19:28;5.20;;;3.70;;
63882;SDS011;50047;50.596;30.466;2022-08-03T09:24:56;6.50;;;3.60;;
63882;SDS011;50047;50.596;30.466;2022-08-03T09:27:46;6.30;;;3.30;;
63882;SDS011;50047;50.596;30.466;2022-08-03T09:30:17;4.60;;;3.70;;
63882;SDS011;50047;50.596;30.466;2022-08-03T09:33:04;6.10;;;3.60;;
63882;SDS011;50047;50.596;30.466;2022-08-03T09:35:44;5.50;;;3.40;;
63882;SDS011;50047;50.596;30.466;2022-08-03T09:38:23;7.90;;;4.10;;
63882;SDS011;50047;50.596;30.466;2022-08-03T09:40:54;4.70;;;2.80;;
63882;SDS011;50047;50.596;30.466;2022-08-03T09:43:26;5.00;;;3.10;;
63882;SDS011;50047;50.596;30.466;2022-08-03T09:46:03;4.60;;;3.30;;
63882;SDS011;50047;50.596;30.466;2022-08-03T09:48:33;7.70;;;3.80;;
63882;SDS011;50047;50.596;30.466;2022-08-03T09:51:03;8.40;;;4.20;;
63882;SDS011;50047;50.596;30.466;2022-08-03T09:53:51;5.00;;;3.20;;
63882;SDS011;50047;50.596;30.466;2022-08-03T09:56:42;4.30;;;3.10;;
63882;SDS011;50047;50.596;30.466;2022-08-03T09:59:11;7.70;;;3.70;;
63882;SDS011;50047;50.596;30.466;2022-08-03T10:01:40;5.90;;;3.80;;
63882;SDS011;50047;50.596;30.466;2022-08-03T10:05:58;6.60;;;2.70;;
63882;SDS011;50047;50.596;30.466;2022-08-03T10:08:41;5.40;;;3.30;;
63882;SDS011;50047;50.596;30.466;2022-08-03T10:11:08;5.30;;;3.70;;
63882;SDS011;50047;50.596;30.466;2022-08-03T10:13:35;4.30;;;3.40;;
63882;SDS011;50047;50.596;30.466;2022-08-03T10:16:04;5.00;;;4.00;;
63882;SDS011;50047;50.596;30.466;2022-08-03T10:18:50;3.70;;;2.80;;
63882;SDS011;50047;50.596;30.466;2022-08-03T10:21:17;5.00;;;3.70;;
63882;SDS011;50047;50.596;30.466;2022-08-03T10:23:46;6.20;;;3.20;;
63882;SDS011;50047;50.596;30.466;2022-08-03T10:26:15;6.50;;;3.40;;
63882;SDS011;50047;50.596;30.466;2022-08-03T10:28:48;5.80;;;4.00;;
63882;SDS011;50047;50.596;30.466;2022-08-03T10:31:19;4.50;;;3.70;;
63882;SDS011;50047;50.596;30.466;2022-08-03T10:33:50;4.30;;;2.90;;
63882;SDS011;50047;50.596;30.466;2022-08-03T10:36:20;4.60;;;3.20;;
63882;SDS011;50047;50.596;30.466;2022-08-03T10:38:50;4.60;;;3.20;;
63882;SDS011;50047;50.596;30.466;2022-08-03T10:41:20;4.60;;;3.30;;
63882;SDS011;50047;50.596;30.466;2022-08-03T10:43:49;3.30;;;3.00;;
63882;SDS011;50047;50.596;30.466;2022-08-03T10:46:22;4.40;;;3.20;;
63882;SDS011;50047;50.596;30.466;2022-08-03T10:48:51;6.30;;;2.60;;
63882;SDS011;50047;50.596;30.466;2022-08-03T10:51:19;5.20;;;3.70;;
63882;SDS011;50047;50.596;30.466;2022-08-03T10:53:48;7.20;;;4.20;;
63882;SDS011;50047;50.596;30.466;2022-08-03T11:02:15;6.50;;;4.50;;
63882;SDS011;50047;50.596;30.466;2022-08-03T11:04:43;4.90;;;3.60;;
63882;SDS011;50047;50.596;30.466;2022-08-03T11:09:49;6.00;;;4.10;;
63882;SDS011;50047;50.596;30.466;2022-08-03T11:12:25;5.90;;;4.00;;
63882;SDS011;50047;50.596;30.466;2022-08-03T11:14:59;7.70;;;4.40;;
63882;SDS011;50047;50.596;30.466;2022-08-03T11:17:28;7.60;;;4.10;;
63882;SDS011;50047;50.596;30.466;2022-08-03T11:19:55;7.60;;;4.50;;
63882;SDS011;50047;50.596;30.466;2022-08-03T11:22:24;7.10;;;4.60;;
63882;SDS011;50047;50.596;30.466;2022-08-03T11:25:12;9.30;;;4.50;;
63882;SDS011;50047;50.596;30.466;2022-08-03T11:28:23;8.10;;;4.40;;
63882;SDS011;50047;50.596;30.466;2022-08-03T11:30:52;5.40;;;4.50;;
63882;SDS011;50047;50.596;30.466;2022-08-03T11:33:29;8.60;;;3.90;;
63882;SDS011;50047;50.596;30.466;2022-08-03T11:35:58;6.70;;;4.40;;
63882;SDS011;50047;50.596;30.466;2022-08-03T11:38:27;9.20;;;3.80;;
63882;SDS011;50047;50.596;30.466;2022-08-03T11:40:54;4.90;;;3.80;;
63882;SDS011;50047;50.596;30.466;2022-08-03T11:46:07;4.80;;;3.90;;
63882;SDS011;50047;50.596;30.466;2022-08-03T11:48:53;5.10;;;4.20;;
63882;SDS011;50047;50.596;30.466;2022-08-03T11:51:35;4.50;;;3.60;;
63882;SDS011;50047;50.596;30.466;2022-08-03T11:54:04;6.60;;;3.80;;
63882;SDS011;50047;50.596;30.466;2022-08-03T11:56:53;9.00;;;4.40;;
63882;SDS011;50047;50.596;30.466;2022-08-03T11:59:30;6.60;;;4.50;;
63882;SDS011;50047;50.596;30.466;2022-08-03T12:07:36;4.00;;;2.90;;
63882;SDS011;50047;50.596;30.466;2022-08-03T12:10:31;5.10;;;4.00;;
63882;SDS011;50047;50.596;30.466;2022-08-03T12:13:00;6.20;;;4.00;;
63882;SDS011;50047;50.596;30.466;2022-08-03T12:15:29;5.10;;;3.90;;
63882;SDS011;50047;50.596;30.466;2022-08-03T12:18:00;6.10;;;4.00;;
63882;SDS011;50047;50.596;30.466;2022-08-03T12:20:38;5.20;;;2.80;;
63882;SDS011;50047;50.596;30.466;2022-08-03T12:23:06;7.00;;;3.60;;
63882;SDS011;50047;50.596;30.466;2022-08-03T12:25:36;6.70;;;3.60;;
63882;SDS011;50047;50.596;30.466;2022-08-03T12:28:41;6.20;;;3.70;;
63882;SDS011;50047;50.596;30.466;2022-08-03T12:31:06;4.10;;;3.60;;
63882;SDS011;50047;50.596;30.466;2022-08-03T12:36:32;4.80;;;3.60;;
63882;SDS011;50047;50.596;30.466;2022-08-03T12:39:02;11.30;;;3.30;;
63882;SDS011;50047;50.596;30.466;2022-08-03T12:41:35;6.70;;;3.70;;
63882;SDS011;50047;50.596;30.466;2022-08-03T12:44:05;8.70;;;4.00;;
63882;SDS011;50047;50.596;30.466;2022-08-03T12:49:07;5.60;;;2.90;;
63882;SDS011;50047;50.596;30.466;2022-08-03T12:54:29;2.60;;;2.00;;
63882;SDS011;50047;50.596;30.466;2022-08-03T12:59:29;2.40;;;2.10;;
63882;SDS011;50047;50.596;30.466;2022-08-03T13:04:45;2.60;;;2.20;;
63882;SDS011;50047;50.596;30.466;2022-08-03T13:07:13;3.80;;;2.40;;
63882;SDS011;50047;50.596;30.466;2022-08-03T13:09:47;3.60;;;2.50;;
63882;SDS011;50047;50.596;30.466;2022-08-03T13:12:16;2.60;;;2.40;;
63882;SDS011;50047;50.596;30.466;2022-08-03T13:14:47;3.50;;;2.00;;
63882;SDS011;50047;50.596;30.466;2022-08-03T13:17:20;3.40;;;2.60;;
63882;SDS011;50047;50.596;30.466;2022-08-03T13:19:48;3.50;;;2.60;;
63882;SDS011;50047;50.596;30.466;2022-08-03T13:22:17;3.70;;;3.00;;
63882;SDS011;50047;50.596;30.466;2022-08-03T13:24:46;4.50;;;3.20;;
63882;SDS011;50047;50.596;30.466;2022-08-03T13:27:15;4.00;;;2.90;;
63882;SDS011;50047;50.596;30.466;2022-08-03T13:30:03;6.20;;;2.60;;
63882;SDS011;50047;50.596;30.466;2022-08-03T13:32:31;5.20;;;3.00;;
63882;SDS011;50047;50.596;30.466;2022-08-03T13:34:59;5.20;;;3.10;;
63882;SDS011;50047;50.596;30.466;2022-08-03T13:37:28;4.40;;;3.30;;
63882;SDS011;50047;50.596;30.466;2022-08-03T13:39:58;3.80;;;3.40;;
63882;SDS011;50047;50.596;30.466;2022-08-03T13:42:31;3.70;;;3.20;;
63882;SDS011;50047;50.596;30.466;2022-08-03T13:45:00;5.10;;;3.00;;
63882;SDS011;50047;50.596;30.466;2022-08-03T13:47:28;5.60;;;3.10;;
63882;SDS011;50047;50.596;30.466;2022-08-03T13:49:55;6.90;;;3.20;;
63882;SDS011;50047;50.596;30.466;2022-08-03T13:52:31;7.90;;;3.70;;
63882;SDS011;50047;50.596;30.466;2022-08-03T13:55:01;7.20;;;3.70;;
63882;SDS011;50047;50.596;30.466;2022-08-03T13:57:31;6.50;;;3.60;;
63882;SDS011;50047;50.596;30.466;2022-08-03T14:00:18;4.20;;;3.10;;
63882;SDS011;50047;50.596;30.466;2022-08-03T14:02:54;6.90;;;3.10;;
63882;SDS011;50047;50.596;30.466;2022-08-03T14:05:35;3.40;;;2.90;;
63882;SDS011;50047;50.596;30.466;2022-08-03T14:08:04;4.40;;;2.50;;
63882;SDS011;50047;50.596;30.466;2022-08-03T14:10:33;6.10;;;2.70;;
63882;SDS011;50047;50.596;30.466;2022-08-03T14:13:03;3.30;;;1.90;;
63882;SDS011;50047;50.596;30.466;2022-08-03T14:15:31;1.90;;;1.70;;
63882;SDS011;50047;50.596;30.466;2022-08-03T14:18:07;3.30;;;1.80;;
63882;SDS011;50047;50.596;30.466;2022-08-03T14:20:41;3.20;;;2.00;;
63882;SDS011;50047;50.596;30.466;2022-08-03T14:23:19;3.10;;;1.80;;
63882;SDS011;50047;50.596;30.466;2022-08-03T14:25:47;2.40;;;1.70;;
63882;SDS011;50047;50.596;30.466;2022-08-03T14:28:18;3.30;;;2.00;;
63882;SDS011;50047;50.596;30.466;2022-08-03T14:30:47;2.90;;;1.90;;
63882;SDS011;50047;50.596;30.466;2022-08-03T14:33:14;4.70;;;2.20;;
63882;SDS011;50047;50.596;30.466;2022-08-03T14:35:42;2.10;;;1.50;;
63882;SDS011;50047;50.596;30.466;2022-08-03T14:38:09;3.70;;;2.10;;
63882;SDS011;50047;50.596;30.466;2022-08-03T14:40:36;5.40;;;2.00;;
63882;SDS011;50047;50.596;30.466;2022-08-03T14:43:03;3.80;;;2.30;;
63882;SDS011;50047;50.596;30.466;2022-08-03T14:45:31;3.10;;;2.40;;
63882;SDS011;50047;50.596;30.466;2022-08-03T14:47:58;3.60;;;1.80;;
63882;SDS011;50047;50.596;30.466;2022-08-03T14:50:46;4.30;;;1.90;;
63882;SDS011;50047;50.596;30.466;2022-08-03T14:55:45;2.60;;;1.90;;
63882;SDS011;50047;50.596;30.466;2022-08-03T14:58:21;2.30;;;1.80;;
63882;SDS011;50047;50.596;30.466;2022-08-03T15:00:51;2.90;;;1.60;;
63882;SDS011;50047;50.596;30.466;2022-08-03T15:03:20;2.90;;;1.90;;
63882;SDS011;50047;50.596;30.466;2022-08-03T15:08:19;2.10;;;1.80;;
63882;SDS011;50047;50.596;30.466;2022-08-03T15:10:48;3.40;;;2.10;;
63882;SDS011;50047;50.596;30.466;2022-08-03T15:13:16;3.20;;;2.30;;
63882;SDS011;50047;50.596;30.466;2022-08-03T15:15:44;2.10;;;1.40;;
63882;SDS011;50047;50.596;30.466;2022-08-03T15:18:11;2.30;;;2.10;;
63882;SDS011;50047;50.596;30.466;2022-08-03T15:20:38;2.40;;;2.00;;
63882;SDS011;50047;50.596;30.466;2022-08-03T15:23:13;3.50;;;2.80;;
63882;SDS011;50047;50.596;30.466;2022-08-03T15:25:42;6.00;;;2.80;;
63882;SDS011;50047;50.596;30.466;2022-08-03T15:28:30;3.40;;;2.50;;
63882;SDS011;50047;50.596;30.466;2022-08-03T15:30:58;2.20;;;1.60;;
63882;SDS011;50047;50.596;30.466;2022-08-03T15:33:26;6.00;;;2.20;;
63882;SDS011;50047;50.596;30.466;2022-08-03T15:35:55;3.20;;;2.50;;
63882;SDS011;50047;50.596;30.466;2022-08-03T15:38:23;3.80;;;2.90;;
63882;SDS011;50047;50.596;30.466;2022-08-03T15:40:52;3.00;;;2.70;;
63882;SDS011;50047;50.596;30.466;2022-08-03T15:43:21;3.40;;;2.80;;
63882;SDS011;50047;50.596;30.466;2022-08-03T15:45:49;2.40;;;1.90;;
63882;SDS011;50047;50.596;30.466;2022-08-03T15:48:37;6.00;;;2.30;;
63882;SDS011;50047;50.596;30.466;2022-08-03T15:51:06;5.20;;;2.30;;
63882;SDS011;50047;50.596;30.466;2022-08-03T15:53:34;3.00;;;2.70;;
63882;SDS011;50047;50.596;30.466;2022-08-03T15:56:02;5.00;;;3.00;;
63882;SDS011;50047;50.596;30.466;2022-08-03T15:58:38;5.30;;;2.90;;
63882;SDS011;50047;50.596;30.466;2022-08-03T16:01:26;4.40;;;1.70;;